Time;durP1;ratioP1;P1;durP2;ratioP2;P2;SDS_P1;SDS_P2;PMS_P1;PMS_P2;Temp;Humidity;BMP_temperature;BMP_pressure;BME280_temperature;BME280_humidity;BME280_pressure;Samples;Min_cycle;Max_cycle;Signal;HPM_P1;HPM_P2
2022/03/31 00:00:04;;;;;;;4.70;1.10;;;;;;;;;;5069781;28;20094;-82
2022/03/31 00:02:30;;;;;;;5.95;1.13;;;;;;;;;;5070618;28;20441;-82
2022/03/31 00:04:56;;;;;;;4.60;1.02;;;;;;;;;;5100650;27;20044;-83
2022/03/31 00:07:22;;;;;;;5.68;0.90;;;;;;;;;;5055662;28;20197;-83
2022/03/31 00:09:48;;;;;;;6.22;1.10;;;;;;;;;;5071782;28;20052;-82
2022/03/31 00:12:18;;;;;;;4.88;1.15;;;;;;;;;;5084649;28;20819;-83
2022/03/31 00:14:44;;;;;;;4.55;0.88;;;;;;;;;;5087616;28;20051;-83
2022/03/31 00:17:10;;;;;;;4.57;0.85;;;;;;;;;;5102281;27;20424;-83
2022/03/31 00:19:37;;;;;;;6.97;1.08;;;;;;;;;;5110799;27;20085;-82
2022/03/31 00:22:03;;;;;;;5.75;0.98;;;;;;;;;;5086911;28;20048;-82
2022/03/31 00:24:29;;;;;;;3.47;0.82;;;;;;;;;;5098555;28;20048;-82
2022/03/31 00:26:55;;;;;;;6.55;1.45;;;;;;;;;;5071939;28;20040;-84
2022/03/31 00:29:22;;;;;;;5.57;1.05;;;;;;;;;;5080028;28;20177;-84
2022/03/31 00:31:48;;;;;;;4.47;0.82;;;;;;;;;;5050371;28;20609;-82
2022/03/31 00:34:15;;;;;;;2.63;0.80;;;;;;;;;;5069518;28;20048;-82
2022/03/31 00:36:41;;;;;;;2.88;0.90;;;;;;;;;;5086063;28;20392;-83
2022/03/31 00:41:52;;;;;;;3.97;1.08;;;;;;;;;;5082970;28;20036;-83
2022/03/31 00:44:19;;;;;;;6.30;1.00;;;;;;;;;;5083452;28;20281;-83
2022/03/31 00:46:49;;;;;;;6.82;1.00;;;;;;;;;;5086428;28;20048;-83
2022/03/31 00:49:16;;;;;;;2.72;0.73;;;;;;;;;;5084940;28;20044;-84
2022/03/31 00:51:42;;;;;;;5.38;1.00;;;;;;;;;;5092073;28;20474;-81
2022/03/31 00:54:08;;;;;;;10.18;1.13;;;;;;;;;;5067610;28;20170;-83
2022/03/31 00:56:35;;;;;;;6.32;0.93;;;;;;;;;;5082344;28;20036;-82
2022/03/31 00:59:05;;;;;;;6.60;1.10;;;;;;;;;;5085886;28;20055;-84
2022/03/31 01:01:32;;;;;;;5.43;1.30;;;;;;;;;;5071628;28;20612;-82
2022/03/31 01:04:00;;;;;;;4.47;0.90;;;;;;;;;;5099170;28;20604;-84
2022/03/31 01:06:26;;;;;;;4.63;0.85;;;;;;;;;;5107250;28;20414;-84
2022/03/31 01:08:52;;;;;;;10.07;1.30;;;;;;;;;;5090369;28;20055;-83
2022/03/31 01:11:19;;;;;;;6.47;1.10;;;;;;;;;;5059952;28;20059;-85
2022/03/31 01:13:45;;;;;;;4.40;0.93;;;;;;;;;;5071691;28;20428;-83
2022/03/31 01:16:11;;;;;;;6.63;1.10;;;;;;;;;;5064304;28;20040;-83
2022/03/31 01:18:37;;;;;;;8.38;1.30;;;;;;;;;;5101293;28;20040;-83
2022/03/31 01:21:03;;;;;;;4.97;1.02;;;;;;;;;;5081471;28;20482;-84
2022/03/31 01:23:29;;;;;;;7.40;1.38;;;;;;;;;;5069822;28;20051;-83
2022/03/31 01:25:56;;;;;;;6.05;1.10;;;;;;;;;;5100680;27;20040;-83
2022/03/31 01:28:22;;;;;;;4.43;1.10;;;;;;;;;;5076801;28;20043;-86
2022/03/31 01:30:48;;;;;;;5.65;1.15;;;;;;;;;;5068681;28;20067;-83
2022/03/31 01:33:15;;;;;;;8.73;1.13;;;;;;;;;;5084713;28;20048;-83
2022/03/31 01:35:41;;;;;;;1.88;0.82;;;;;;;;;;5085500;28;20098;-82
2022/03/31 01:38:07;;;;;;;4.18;0.90;;;;;;;;;;5090887;28;20040;-84
2022/03/31 01:40:34;;;;;;;2.92;0.73;;;;;;;;;;5071613;28;20161;-85
2022/03/31 01:43:00;;;;;;;5.28;0.90;;;;;;;;;;5100084;28;20083;-84
2022/03/31 01:45:26;;;;;;;7.38;1.88;;;;;;;;;;5074753;28;20051;-84
2022/03/31 01:47:52;;;;;;;3.83;0.82;;;;;;;;;;5112792;27;20083;-84
2022/03/31 01:50:19;;;;;;;4.47;0.88;;;;;;;;;;5073633;28;20044;-85
2022/03/31 01:52:45;;;;;;;5.35;0.90;;;;;;;;;;5068678;28;20052;-86
2022/03/31 01:55:11;;;;;;;2.35;0.70;;;;;;;;;;5074669;28;20040;-85
2022/03/31 01:57:37;;;;;;;6.38;0.80;;;;;;;;;;5070345;28;20071;-84
2022/03/31 02:00:05;;;;;;;3.03;0.80;;;;;;;;;;5057314;28;20043;-84
2022/03/31 02:02:31;;;;;;;3.28;0.80;;;;;;;;;;5100222;28;20071;-84
2022/03/31 02:04:57;;;;;;;3.35;0.80;;;;;;;;;;5087279;28;20039;-83
2022/03/31 02:07:23;;;;;;;4.05;0.80;;;;;;;;;;5076337;28;20105;-83
2022/03/31 02:09:49;;;;;;;3.42;1.00;;;;;;;;;;5076098;28;20056;-82
2022/03/31 02:12:15;;;;;;;4.07;1.40;;;;;;;;;;5078485;28;20048;-84
2022/03/31 02:14:41;;;;;;;8.95;1.75;;;;;;;;;;5074473;28;20135;-83
2022/03/31 02:17:08;;;;;;;5.68;1.83;;;;;;;;;;5083347;28;20047;-84
2022/03/31 02:19:35;;;;;;;4.93;2.00;;;;;;;;;;5073049;28;20044;-83
2022/03/31 02:22:01;;;;;;;5.05;2.20;;;;;;;;;;5073919;28;20040;-82
2022/03/31 02:24:27;;;;;;;12.35;3.17;;;;;;;;;;5070232;28;20051;-83
2022/03/31 02:26:54;;;;;;;4.63;3.40;;;;;;;;;;5082785;28;20517;-84
2022/03/31 02:29:20;;;;;;;4.40;2.70;;;;;;;;;;5075454;28;20040;-83
2022/03/31 02:31:47;;;;;;;5.03;3.50;;;;;;;;;;5072131;28;20444;-82
2022/03/31 02:34:16;;;;;;;4.85;3.58;;;;;;;;;;5090209;28;20071;-84
2022/03/31 02:36:43;;;;;;;7.13;3.85;;;;;;;;;;5081105;28;20071;-82
2022/03/31 02:39:09;;;;;;;8.13;4.82;;;;;;;;;;5066683;28;20402;-84
2022/03/31 02:41:36;;;;;;;6.05;4.40;;;;;;;;;;5100779;28;20039;-83
2022/03/31 02:44:03;;;;;;;7.97;4.68;;;;;;;;;;5074042;28;20120;-84
2022/03/31 02:46:29;;;;;;;8.77;4.80;;;;;;;;;;5081404;28;20123;-83
2022/03/31 02:48:56;;;;;;;9.15;5.35;;;;;;;;;;5089361;28;20062;-83
2022/03/31 02:51:25;;;;;;;10.32;5.78;;;;;;;;;;5075407;28;20395;-85
2022/03/31 02:56:36;;;;;;;13.63;8.15;;;;;;;;;;5074197;28;20055;-84
2022/03/31 02:59:04;;;;;;;13.80;9.05;;;;;;;;;;5089353;28;20074;-84
2022/03/31 03:01:30;;;;;;;14.45;10.05;;;;;;;;;;5099512;27;20762;-83
2022/03/31 03:03:57;;;;;;;14.27;10.07;;;;;;;;;;5073587;28;20495;-84
2022/03/31 03:06:24;;;;;;;17.80;10.80;;;;;;;;;;5083918;28;20372;-82
2022/03/31 03:08:50;;;;;;;15.30;10.82;;;;;;;;;;5075893;28;20036;-83
2022/03/31 03:11:17;;;;;;;15.20;11.20;;;;;;;;;;5085430;28;20048;-83
2022/03/31 03:13:47;;;;;;;13.48;10.60;;;;;;;;;;5119342;27;20044;-82
2022/03/31 03:16:13;;;;;;;16.42;11.73;;;;;;;;;;5088191;28;20143;-82
2022/03/31 03:18:40;;;;;;;15.05;10.35;;;;;;;;;;5071338;28;20048;-82
2022/03/31 03:21:07;;;;;;;11.00;9.00;;;;;;;;;;5091554;28;20505;-84
2022/03/31 03:23:37;;;;;;;10.65;7.72;;;;;;;;;;5086164;28;20044;-81
2022/03/31 03:26:04;;;;;;;7.82;6.10;;;;;;;;;;5090516;28;20043;-80
2022/03/31 03:28:31;;;;;;;11.07;6.53;;;;;;;;;;5083113;28;20087;-85
2022/03/31 03:30:57;;;;;;;7.88;5.95;;;;;;;;;;5067134;28;20037;-80
2022/03/31 03:33:24;;;;;;;7.40;6.13;;;;;;;;;;5092482;28;20043;-81
2022/03/31 03:35:50;;;;;;;8.85;5.78;;;;;;;;;;5077366;28;20052;-79
2022/03/31 03:38:16;;;;;;;5.95;4.97;;;;;;;;;;5065962;28;20055;-79
2022/03/31 03:40:43;;;;;;;7.45;5.22;;;;;;;;;;5096037;28;20047;-80
2022/03/31 03:43:09;;;;;;;8.52;4.75;;;;;;;;;;5082964;28;20077;-81
2022/03/31 03:45:36;;;;;;;6.30;4.75;;;;;;;;;;5091305;28;20067;-80
2022/03/31 03:48:03;;;;;;;9.52;5.28;;;;;;;;;;5096077;28;20050;-80
2022/03/31 03:50:29;;;;;;;4.88;4.03;;;;;;;;;;5084190;28;20047;-81
2022/03/31 03:52:55;;;;;;;4.18;3.75;;;;;;;;;;5074277;28;20039;-80
2022/03/31 03:55:21;;;;;;;4.93;3.97;;;;;;;;;;5084978;28;20044;-81
2022/03/31 03:57:48;;;;;;;7.13;3.90;;;;;;;;;;5077105;28;20429;-80
2022/03/31 04:00:14;;;;;;;4.47;3.60;;;;;;;;;;5073722;28;20090;-81
2022/03/31 04:02:41;;;;;;;6.30;3.38;;;;;;;;;;5067554;28;20495;-81
2022/03/31 04:05:08;;;;;;;4.18;3.15;;;;;;;;;;5072463;28;20082;-80
2022/03/31 04:07:34;;;;;;;5.43;3.67;;;;;;;;;;5063775;28;20048;-81
2022/03/31 04:10:00;;;;;;;4.22;3.83;;;;;;;;;;5100647;28;20048;-84
2022/03/31 04:12:26;;;;;;;5.72;4.45;;;;;;;;;;5104388;28;20040;-84
2022/03/31 04:14:52;;;;;;;8.43;6.57;;;;;;;;;;5098365;28;21819;-79
2022/03/31 04:17:18;;;;;;;9.50;7.07;;;;;;;;;;5072421;28;20040;-79
2022/03/31 04:19:44;;;;;;;8.20;6.72;;;;;;;;;;5069829;28;20040;-80
2022/03/31 04:22:10;;;;;;;8.13;6.60;;;;;;;;;;5057602;28;20074;-85
2022/03/31 04:24:36;;;;;;;7.97;6.38;;;;;;;;;;5090246;28;20044;-79
2022/03/31 04:27:03;;;;;;;7.22;6.28;;;;;;;;;;5071318;28;20085;-80
2022/03/31 04:29:29;;;;;;;8.43;5.93;;;;;;;;;;5082646;28;20906;-80
2022/03/31 04:31:55;;;;;;;9.05;5.60;;;;;;;;;;5081814;28;20368;-84
2022/03/31 04:34:21;;;;;;;11.75;6.80;;;;;;;;;;5074420;28;20162;-79
2022/03/31 04:36:48;;;;;;;9.75;6.40;;;;;;;;;;5074394;28;20499;-81
2022/03/31 04:39:14;;;;;;;7.47;6.07;;;;;;;;;;5077846;28;20052;-82
2022/03/31 04:41:41;;;;;;;9.35;6.57;;;;;;;;;;5069951;28;20064;-77
2022/03/31 04:44:07;;;;;;;9.68;8.13;;;;;;;;;;5071897;28;20036;-77
2022/03/31 04:46:33;;;;;;;12.05;8.75;;;;;;;;;;5080893;28;20869;-77
2022/03/31 04:49:00;;;;;;;12.35;9.50;;;;;;;;;;5079848;28;20078;-80
2022/03/31 04:51:27;;;;;;;13.30;11.55;;;;;;;;;;5065345;28;20048;-80
2022/03/31 04:53:53;;;;;;;15.27;10.10;;;;;;;;;;5071435;28;20044;-82
2022/03/31 04:56:19;;;;;;;14.00;11.18;;;;;;;;;;5069959;28;20075;-82
2022/03/31 04:58:45;;;;;;;14.57;10.38;;;;;;;;;;5078043;28;20483;-82
2022/03/31 05:01:12;;;;;;;14.57;8.25;;;;;;;;;;5069260;28;20056;-82
2022/03/31 05:03:39;;;;;;;12.30;7.65;;;;;;;;;;5085754;28;20044;-82
2022/03/31 05:06:05;;;;;;;10.45;6.40;;;;;;;;;;5068165;28;20044;-81
2022/03/31 05:08:31;;;;;;;9.77;6.68;;;;;;;;;;5082975;28;20040;-80
2022/03/31 05:10:57;;;;;;;6.85;5.45;;;;;;;;;;5053425;28;20487;-82
2022/03/31 05:13:24;;;;;;;9.35;5.18;;;;;;;;;;5086086;28;20056;-82
2022/03/31 05:15:50;;;;;;;10.10;6.20;;;;;;;;;;5088162;28;20083;-80
2022/03/31 05:18:16;;;;;;;7.53;4.88;;;;;;;;;;5089233;28;20046;-88
2022/03/31 05:20:43;;;;;;;8.82;5.50;;;;;;;;;;5088476;28;20118;-81
2022/03/31 05:23:09;;;;;;;11.43;5.85;;;;;;;;;;5074113;28;20390;-80
2022/03/31 05:25:35;;;;;;;9.45;5.80;;;;;;;;;;5056090;28;20047;-80
2022/03/31 05:28:02;;;;;;;7.95;4.88;;;;;;;;;;5090768;28;20204;-80
2022/03/31 05:30:28;;;;;;;7.88;5.15;;;;;;;;;;5073678;28;20082;-81
2022/03/31 05:32:54;;;;;;;12.07;5.43;;;;;;;;;;5074694;28;20055;-80
2022/03/31 05:35:20;;;;;;;9.20;5.47;;;;;;;;;;5073226;28;21483;-81
2022/03/31 05:37:47;;;;;;;13.77;5.70;;;;;;;;;;5057447;28;20036;-81
2022/03/31 05:40:14;;;;;;;8.07;5.95;;;;;;;;;;5091849;28;20132;-81
2022/03/31 05:42:40;;;;;;;9.35;6.53;;;;;;;;;;5072938;28;20051;-81
2022/03/31 05:45:09;;;;;;;7.25;5.65;;;;;;;;;;5056205;28;20044;-85
2022/03/31 05:47:36;;;;;;;8.20;6.05;;;;;;;;;;5089772;28;20094;-80
2022/03/31 05:50:03;;;;;;;7.50;6.20;;;;;;;;;;5090907;28;20040;-80
2022/03/31 05:52:29;;;;;;;11.77;6.18;;;;;;;;;;5057888;28;20048;-84
2022/03/31 05:54:55;;;;;;;9.02;7.18;;;;;;;;;;5082959;28;20055;-82
2022/03/31 05:57:21;;;;;;;6.97;6.28;;;;;;;;;;5112681;28;20075;-85
2022/03/31 05:59:47;;;;;;;12.43;6.28;;;;;;;;;;5082084;28;20050;-82
2022/03/31 06:02:14;;;;;;;10.88;6.13;;;;;;;;;;5082212;28;20059;-82
2022/03/31 06:04:40;;;;;;;7.70;6.63;;;;;;;;;;5068231;28;20047;-81
2022/03/31 06:07:08;;;;;;;10.50;7.45;;;;;;;;;;5071036;28;20089;-80
2022/03/31 06:09:34;;;;;;;9.38;7.45;;;;;;;;;;5069476;28;20056;-82
2022/03/31 06:12:00;;;;;;;10.07;8.15;;;;;;;;;;5091905;28;20052;-83
2022/03/31 06:14:27;;;;;;;10.10;8.07;;;;;;;;;;5089266;28;20040;-82
2022/03/31 06:16:53;;;;;;;8.82;7.68;;;;;;;;;;5089537;28;20032;-82
2022/03/31 06:19:19;;;;;;;10.10;8.50;;;;;;;;;;5073512;28;20560;-84
2022/03/31 06:21:45;;;;;;;9.52;8.15;;;;;;;;;;5072744;28;20153;-84
2022/03/31 06:24:11;;;;;;;10.88;8.93;;;;;;;;;;5076528;28;20044;-82
2022/03/31 06:26:37;;;;;;;11.10;8.77;;;;;;;;;;5089629;28;20044;-82
2022/03/31 06:29:06;;;;;;;10.07;8.50;;;;;;;;;;5058527;28;20129;-81
2022/03/31 06:31:32;;;;;;;9.65;8.63;;;;;;;;;;5090633;28;20096;-83
2022/03/31 06:33:58;;;;;;;11.50;8.63;;;;;;;;;;5087658;28;20083;-82
2022/03/31 06:36:25;;;;;;;11.38;9.40;;;;;;;;;;5075597;28;20043;-82
2022/03/31 06:38:51;;;;;;;10.38;9.05;;;;;;;;;;5058610;28;20044;-81
2022/03/31 06:41:18;;;;;;;10.23;8.93;;;;;;;;;;5077084;28;20536;-81
2022/03/31 06:43:45;;;;;;;9.55;8.52;;;;;;;;;;5075486;28;20040;-82
2022/03/31 06:46:12;;;;;;;9.80;8.80;;;;;;;;;;5075858;28;20048;-83
2022/03/31 06:48:41;;;;;;;9.13;8.23;;;;;;;;;;5089998;28;20040;-81
2022/03/31 06:51:08;;;;;;;12.25;9.63;;;;;;;;;;5075251;28;20149;-82
2022/03/31 06:53:36;;;;;;;9.93;8.73;;;;;;;;;;5074990;28;20380;-82
2022/03/31 06:56:03;;;;;;;9.55;8.20;;;;;;;;;;5077240;28;20044;-83
2022/03/31 06:58:30;;;;;;;9.55;8.55;;;;;;;;;;5074886;28;20074;-82
2022/03/31 07:00:59;;;;;;;9.55;8.25;;;;;;;;;;5091059;28;20086;-83
2022/03/31 07:03:26;;;;;;;10.10;8.68;;;;;;;;;;5073583;28;20040;-82
2022/03/31 07:05:52;;;;;;;13.30;8.98;;;;;;;;;;5053644;28;20445;-83
2022/03/31 07:08:18;;;;;;;9.93;8.85;;;;;;;;;;5087818;28;20108;-83
2022/03/31 07:10:44;;;;;;;11.18;9.52;;;;;;;;;;5086708;28;20089;-83
2022/03/31 07:13:11;;;;;;;10.52;9.32;;;;;;;;;;5072018;28;20073;-83
2022/03/31 07:15:37;;;;;;;11.48;9.50;;;;;;;;;;5088093;28;20048;-85
2022/03/31 07:18:04;;;;;;;9.95;8.95;;;;;;;;;;5068319;28;20153;-83
2022/03/31 07:20:30;;;;;;;11.63;10.43;;;;;;;;;;5085944;28;20072;-82
2022/03/31 07:22:57;;;;;;;10.25;8.88;;;;;;;;;;5070779;28;20044;-82
2022/03/31 07:25:23;;;;;;;15.32;10.57;;;;;;;;;;5083047;28;20082;-85
2022/03/31 07:27:50;;;;;;;11.45;10.25;;;;;;;;;;5091809;28;20172;-82
2022/03/31 07:30:17;;;;;;;12.43;10.27;;;;;;;;;;5070621;28;20085;-81
2022/03/31 07:33:00;;;;;;;12.77;10.52;;;;;;;;;;5075778;28;20094;-81
2022/03/31 07:35:30;;;;;;;11.43;9.63;;;;;;;;;;5080272;28;20143;-86
2022/03/31 07:37:56;;;;;;;13.43;11.48;;;;;;;;;;5065310;28;20094;-84
2022/03/31 07:40:23;;;;;;;13.05;11.30;;;;;;;;;;5083266;28;20126;-79
2022/03/31 07:42:50;;;;;;;12.93;11.30;;;;;;;;;;5075017;28;20044;-77
2022/03/31 07:45:16;;;;;;;14.13;11.98;;;;;;;;;;5086954;28;20051;-80
2022/03/31 07:47:43;;;;;;;14.85;12.13;;;;;;;;;;5081828;28;20048;-79
2022/03/31 07:50:10;;;;;;;14.30;12.13;;;;;;;;;;5080397;28;20542;-80
2022/03/31 07:52:40;;;;;;;13.77;11.32;;;;;;;;;;5081064;28;20078;-76
2022/03/31 07:55:07;;;;;;;11.93;10.68;;;;;;;;;;5071085;28;20413;-79
2022/03/31 07:57:33;;;;;;;13.90;12.32;;;;;;;;;;5111153;27;20046;-83
2022/03/31 07:59:59;;;;;;;13.73;11.73;;;;;;;;;;5082623;27;20562;-85
2022/03/31 08:02:26;;;;;;;17.83;11.32;;;;;;;;;;5103856;27;20040;-87
2022/03/31 08:04:52;;;;;;;12.82;11.02;;;;;;;;;;5064427;28;20040;-86
2022/03/31 08:07:18;;;;;;;14.05;12.23;;;;;;;;;;5079753;28;20059;-81
2022/03/31 08:09:44;;;;;;;14.38;12.50;;;;;;;;;;5080692;28;20101;-78
2022/03/31 08:12:11;;;;;;;12.93;10.35;;;;;;;;;;5088189;28;20052;-84
2022/03/31 08:14:37;;;;;;;13.70;11.63;;;;;;;;;;5076687;28;20050;-82
2022/03/31 08:17:03;;;;;;;11.93;10.65;;;;;;;;;;5087381;28;20071;-79
2022/03/31 08:19:32;;;;;;;15.02;11.70;;;;;;;;;;5085686;28;20059;-80
2022/03/31 08:22:02;;;;;;;11.48;10.10;;;;;;;;;;5117687;27;20548;-80
2022/03/31 08:24:29;;;;;;;10.65;9.50;;;;;;;;;;5082276;28;20378;-81
2022/03/31 08:26:58;;;;;;;10.25;8.95;;;;;;;;;;5068673;28;20173;-81
2022/03/31 08:29:25;;;;;;;12.35;9.55;;;;;;;;;;5068774;28;20134;-80
2022/03/31 08:31:52;;;;;;;10.48;9.38;;;;;;;;;;5098907;27;20080;-79
2022/03/31 08:34:18;;;;;;;11.13;9.35;;;;;;;;;;5070574;28;20039;-80
2022/03/31 08:36:44;;;;;;;10.52;9.00;;;;;;;;;;5082848;28;20044;-81
2022/03/31 08:39:10;;;;;;;11.77;9.80;;;;;;;;;;5083202;28;20105;-80
2022/03/31 08:41:36;;;;;;;10.88;9.35;;;;;;;;;;5080091;28;20436;-80
2022/03/31 08:44:03;;;;;;;12.02;9.80;;;;;;;;;;5066504;28;20607;-81
2022/03/31 08:46:34;;;;;;;11.73;9.95;;;;;;;;;;5076303;28;20040;-79
2022/03/31 08:49:00;;;;;;;12.18;9.70;;;;;;;;;;5085372;28;20044;-79
2022/03/31 08:51:27;;;;;;;13.30;9.82;;;;;;;;;;5082015;28;20412;-80
2022/03/31 08:53:53;;;;;;;13.90;11.43;;;;;;;;;;5084766;28;20040;-78
2022/03/31 08:56:19;;;;;;;11.50;9.45;;;;;;;;;;5068094;28;20120;-84
2022/03/31 08:58:46;;;;;;;11.88;9.90;;;;;;;;;;5085107;28;20466;-79
2022/03/31 09:01:12;;;;;;;13.38;10.77;;;;;;;;;;5055214;28;20075;-78
2022/03/31 09:03:39;;;;;;;12.55;10.10;;;;;;;;;;5064556;28;20048;-82
2022/03/31 09:06:07;;;;;;;12.35;10.35;;;;;;;;;;5079242;28;20078;-81
2022/03/31 09:08:34;;;;;;;13.30;10.68;;;;;;;;;;5093352;28;20040;-78
2022/03/31 09:11:00;;;;;;;15.13;10.70;;;;;;;;;;5080370;28;20494;-79
2022/03/31 09:13:31;;;;;;;15.57;11.65;;;;;;;;;;5067477;28;20383;-75
2022/03/31 09:16:01;;;;;;;15.95;11.85;;;;;;;;;;5085804;28;20096;-79
2022/03/31 09:18:28;;;;;;;15.90;11.65;;;;;;;;;;5070222;28;20044;-78
2022/03/31 09:20:55;;;;;;;18.55;13.18;;;;;;;;;;5084539;28;20036;-78
2022/03/31 09:23:23;;;;;;;18.33;12.52;;;;;;;;;;5069586;28;20040;-80
2022/03/31 09:25:52;;;;;;;15.18;11.38;;;;;;;;;;5071696;28;20040;-80
2022/03/31 09:28:23;;;;;;;14.75;11.38;;;;;;;;;;5055930;28;20032;-81
2022/03/31 09:30:49;;;;;;;15.43;11.32;;;;;;;;;;5076332;28;20048;-81
2022/03/31 09:33:48;;;;;;;13.10;10.80;;;;;;;;;;5071930;28;20101;-82
2022/03/31 09:36:14;;;;;;;14.80;10.43;;;;;;;;;;5027739;28;20040;-77
2022/03/31 09:38:44;;;;;;;13.85;10.48;;;;;;;;;;5086292;28;20044;-77
2022/03/31 09:41:17;;;;;;;12.10;9.30;;;;;;;;;;5083153;28;20516;-79
2022/03/31 09:43:44;;;;;;;13.98;9.82;;;;;;;;;;5090677;28;20051;-84
2022/03/31 09:46:29;;;;;;;12.25;9.57;;;;;;;;;;5088651;28;20047;-81
2022/03/31 09:48:56;;;;;;;11.25;8.68;;;;;;;;;;5091152;28;20047;-80
2022/03/31 09:51:23;;;;;;;10.80;8.00;;;;;;;;;;5091497;28;20115;-82
2022/03/31 09:53:50;;;;;;;10.80;8.50;;;;;;;;;;5075310;28;20052;-82
2022/03/31 09:56:17;;;;;;;11.68;8.70;;;;;;;;;;5056969;28;20131;-82
2022/03/31 09:58:46;;;;;;;10.95;8.13;;;;;;;;;;5090249;28;20088;-82
2022/03/31 10:01:14;;;;;;;11.13;8.30;;;;;;;;;;5074892;28;20048;-82
2022/03/31 10:03:40;;;;;;;9.18;7.68;;;;;;;;;;5071265;28;20493;-84
2022/03/31 10:06:07;;;;;;;10.27;8.32;;;;;;;;;;5118059;27;20495;-83
2022/03/31 10:08:39;;;;;;;10.82;8.05;;;;;;;;;;5090165;28;20158;-84
2022/03/31 10:11:06;;;;;;;11.00;7.95;;;;;;;;;;5074860;28;20043;-83
2022/03/31 10:13:37;;;;;;;12.55;9.18;;;;;;;;;;5089628;28;20133;-82
2022/03/31 10:16:04;;;;;;;11.35;8.45;;;;;;;;;;5089410;28;20051;-82
2022/03/31 10:18:31;;;;;;;15.82;9.93;;;;;;;;;;5090364;28;20096;-81
2022/03/31 10:20:58;;;;;;;13.52;9.80;;;;;;;;;;5091579;28;20036;-80
2022/03/31 10:26:20;;;;;;;14.32;10.00;;;;;;;;;;5090456;28;20479;-80
2022/03/31 10:29:00;;;;;;;14.50;9.55;;;;;;;;;;5088074;28;20131;-83
2022/03/31 10:31:39;;;;;;;11.85;9.30;;;;;;;;;;5090501;28;20389;-81
2022/03/31 10:34:06;;;;;;;14.85;9.95;;;;;;;;;;5089543;28;20449;-83
2022/03/31 10:36:59;;;;;;;14.15;9.77;;;;;;;;;;5089680;28;20036;-80
2022/03/31 10:39:25;;;;;;;13.98;9.50;;;;;;;;;;5071033;28;20059;-80
2022/03/31 10:42:00;;;;;;;15.30;10.10;;;;;;;;;;5087341;28;20127;-80
2022/03/31 10:44:27;;;;;;;12.23;8.05;;;;;;;;;;5073356;28;20058;-79
2022/03/31 10:47:03;;;;;;;11.65;8.52;;;;;;;;;;5055654;28;20070;-79
2022/03/31 10:49:30;;;;;;;13.55;9.40;;;;;;;;;;5091297;28;20406;-80
2022/03/31 10:51:56;;;;;;;12.10;9.55;;;;;;;;;;5073200;28;20055;-79
2022/03/31 10:54:24;;;;;;;11.35;8.35;;;;;;;;;;5089101;28;20043;-80
2022/03/31 10:57:01;;;;;;;12.00;8.05;;;;;;;;;;5071544;28;20551;-80
2022/03/31 10:59:27;;;;;;;10.30;7.78;;;;;;;;;;5071713;28;20091;-80
2022/03/31 11:01:53;;;;;;;9.90;8.07;;;;;;;;;;5054543;28;20067;-78
2022/03/31 11:04:20;;;;;;;10.80;8.30;;;;;;;;;;5069535;28;20044;-81
2022/03/31 11:06:51;;;;;;;10.23;7.57;;;;;;;;;;5089321;28;20036;-80
2022/03/31 11:09:27;;;;;;;12.00;8.75;;;;;;;;;;5072767;28;20044;-80
2022/03/31 11:11:55;;;;;;;9.82;7.88;;;;;;;;;;5072710;28;20379;-81
2022/03/31 11:14:21;;;;;;;9.95;7.85;;;;;;;;;;5089564;28;20032;-79
2022/03/31 11:16:47;;;;;;;10.43;7.85;;;;;;;;;;5090780;28;20102;-79
2022/03/31 11:19:13;;;;;;;10.27;7.93;;;;;;;;;;5072070;28;20048;-80
2022/03/31 11:21:40;;;;;;;9.75;7.95;;;;;;;;;;5088974;28;20052;-84
2022/03/31 11:24:07;;;;;;;11.43;7.90;;;;;;;;;;5088356;28;20040;-78
2022/03/31 11:26:35;;;;;;;10.20;7.93;;;;;;;;;;5071394;28;20430;-81
2022/03/31 11:29:02;;;;;;;9.95;7.93;;;;;;;;;;5072370;28;21138;-81
2022/03/31 11:31:28;;;;;;;10.77;8.02;;;;;;;;;;5071615;28;20423;-86
2022/03/31 11:33:55;;;;;;;8.05;7.25;;;;;;;;;;5073594;28;20445;-87
2022/03/31 11:36:22;;;;;;;9.75;7.30;;;;;;;;;;5075514;28;20063;-85
2022/03/31 11:38:59;;;;;;;9.10;7.53;;;;;;;;;;5105775;27;20113;-82
2022/03/31 11:41:36;;;;;;;8.23;7.13;;;;;;;;;;5096613;28;20079;-80
2022/03/31 11:44:02;;;;;;;9.82;7.78;;;;;;;;;;5076615;28;20052;-80
2022/03/31 11:46:47;;;;;;;10.48;7.82;;;;;;;;;;5070809;28;20055;-81
2022/03/31 11:49:17;;;;;;;9.02;7.32;;;;;;;;;;5072263;28;20071;-81
2022/03/31 11:51:54;;;;;;;9.50;7.63;;;;;;;;;;5073378;28;20096;-82
2022/03/31 11:54:20;;;;;;;9.85;7.65;;;;;;;;;;5070743;28;20047;-79
2022/03/31 11:56:47;;;;;;;9.68;7.90;;;;;;;;;;5088096;28;20075;-79
2022/03/31 11:59:14;;;;;;;9.07;6.90;;;;;;;;;;5079431;28;20057;-80
2022/03/31 12:01:45;;;;;;;9.15;7.90;;;;;;;;;;5116664;27;20109;-81
2022/03/31 12:04:19;;;;;;;10.32;8.55;;;;;;;;;;5071346;28;20046;-82
2022/03/31 12:06:45;;;;;;;9.43;7.45;;;;;;;;;;5090569;27;20057;-81
2022/03/31 12:09:11;;;;;;;9.82;7.28;;;;;;;;;;5071503;28;20056;-81
2022/03/31 12:11:37;;;;;;;8.60;7.07;;;;;;;;;;5086825;28;20083;-80
2022/03/31 12:14:03;;;;;;;10.48;8.05;;;;;;;;;;5057484;28;20051;-80
2022/03/31 12:16:30;;;;;;;9.10;7.13;;;;;;;;;;5091789;28;20098;-80
2022/03/31 12:18:58;;;;;;;9.05;7.20;;;;;;;;;;5089129;28;20496;-82
2022/03/31 12:21:26;;;;;;;9.60;7.50;;;;;;;;;;5084436;28;20079;-82
2022/03/31 12:23:52;;;;;;;10.15;8.35;;;;;;;;;;5069201;28;20066;-81
2022/03/31 12:26:21;;;;;;;9.95;7.80;;;;;;;;;;5080153;28;20469;-80
2022/03/31 12:28:48;;;;;;;9.05;7.72;;;;;;;;;;5096915;28;20052;-80
2022/03/31 12:31:44;;;;;;;8.32;7.00;;;;;;;;;;5059514;28;20045;-79
2022/03/31 12:34:12;;;;;;;10.05;8.55;;;;;;;;;;5085947;28;20529;-84
2022/03/31 12:36:38;;;;;;;10.63;8.43;;;;;;;;;;5095114;28;20064;-77
2022/03/31 12:39:05;;;;;;;13.68;9.00;;;;;;;;;;5077070;28;20054;-77
2022/03/31 12:41:36;;;;;;;11.40;9.57;;;;;;;;;;5085034;28;20093;-78
2022/03/31 12:44:16;;;;;;;17.27;9.73;;;;;;;;;;5083554;28;20101;-78
2022/03/31 12:46:48;;;;;;;12.02;9.60;;;;;;;;;;5070419;28;20080;-77
2022/03/31 12:49:16;;;;;;;16.75;10.30;;;;;;;;;;5086534;28;20080;-78
2022/03/31 12:51:43;;;;;;;14.65;10.02;;;;;;;;;;5054824;28;20495;-78
2022/03/31 12:54:25;;;;;;;15.32;11.07;;;;;;;;;;5070718;28;20063;-85
2022/03/31 12:56:52;;;;;;;14.15;11.00;;;;;;;;;;5079900;28;20036;-79
2022/03/31 12:59:20;;;;;;;14.60;11.80;;;;;;;;;;5092199;27;20482;-81
2022/03/31 13:02:03;;;;;;;14.48;11.27;;;;;;;;;;5105321;27;20492;-77
2022/03/31 13:04:30;;;;;;;13.80;10.93;;;;;;;;;;5079708;28;20523;-81
2022/03/31 13:06:56;;;;;;;14.60;10.93;;;;;;;;;;5078822;28;20330;-82
2022/03/31 13:09:22;;;;;;;16.77;12.70;;;;;;;;;;5085312;28;20083;-81
2022/03/31 13:11:51;;;;;;;15.68;12.18;;;;;;;;;;5042395;28;20048;-81
2022/03/31 13:14:19;;;;;;;16.13;11.70;;;;;;;;;;5070961;28;20059;-81
2022/03/31 13:16:45;;;;;;;16.30;11.68;;;;;;;;;;5066602;28;20056;-79
2022/03/31 13:19:11;;;;;;;15.70;12.68;;;;;;;;;;5056247;28;20045;-82
2022/03/31 13:21:37;;;;;;;16.75;13.50;;;;;;;;;;5069472;28;20101;-80
2022/03/31 13:24:03;;;;;;;19.23;13.68;;;;;;;;;;5068618;28;20049;-82
2022/03/31 13:26:33;;;;;;;20.08;13.85;;;;;;;;;;5081625;28;20143;-80
2022/03/31 13:29:02;;;;;;;18.83;13.88;;;;;;;;;;5079924;28;20086;-81
2022/03/31 13:31:28;;;;;;;21.63;15.25;;;;;;;;;;5089581;28;20048;-81
2022/03/31 13:33:55;;;;;;;20.52;15.23;;;;;;;;;;5089088;28;20045;-82
2022/03/31 13:36:21;;;;;;;21.88;16.45;;;;;;;;;;5072648;28;20372;-82
2022/03/31 13:38:47;;;;;;;21.85;16.23;;;;;;;;;;5073047;28;20087;-83
2022/03/31 13:41:13;;;;;;;21.40;16.05;;;;;;;;;;5094928;28;20098;-84
2022/03/31 13:43:39;;;;;;;23.55;16.15;;;;;;;;;;5076813;28;20455;-82
2022/03/31 13:46:06;;;;;;;21.63;16.20;;;;;;;;;;5065116;28;20487;-81
2022/03/31 13:48:32;;;;;;;20.67;16.48;;;;;;;;;;5071300;28;20055;-79
2022/03/31 13:50:58;;;;;;;23.15;16.92;;;;;;;;;;5081529;28;20056;-80
2022/03/31 13:53:45;;;;;;;23.27;17.33;;;;;;;;;;5079619;28;20041;-86
2022/03/31 13:56:12;;;;;;;20.20;15.48;;;;;;;;;;5072590;28;20039;-86
2022/03/31 14:01:23;;;;;;;21.02;15.20;;;;;;;;;;5114546;28;20086;-85
2022/03/31 14:03:54;;;;;;;20.55;15.63;;;;;;;;;;5091051;28;20052;-84
2022/03/31 14:06:20;;;;;;;21.80;13.77;;;;;;;;;;5063388;28;20052;-85
2022/03/31 14:08:48;;;;;;;19.70;14.77;;;;;;;;;;5087039;28;20478;-85
2022/03/31 14:11:14;;;;;;;18.75;14.65;;;;;;;;;;5065754;28;20044;-85
2022/03/31 14:13:40;;;;;;;23.58;15.77;;;;;;;;;;5078006;28;20391;-82
2022/03/31 14:16:07;;;;;;;21.67;16.10;;;;;;;;;;5110154;28;20040;-87
2022/03/31 14:18:34;;;;;;;22.23;15.60;;;;;;;;;;5081478;28;20090;-87
2022/03/31 14:21:01;;;;;;;21.00;14.55;;;;;;;;;;5100408;28;20056;-86
2022/03/31 14:23:29;;;;;;;22.90;15.60;;;;;;;;;;5072273;28;20125;-85
2022/03/31 14:25:58;;;;;;;20.60;14.63;;;;;;;;;;5054080;28;20127;-83
2022/03/31 14:28:35;;;;;;;17.88;11.45;;;;;;;;;;5120111;28;20058;-85
2022/03/31 14:31:03;;;;;;;17.50;12.77;;;;;;;;;;5084358;28;20067;-84
2022/03/31 14:33:29;;;;;;;18.10;12.13;;;;;;;;;;5089485;28;20047;-85
2022/03/31 14:35:56;;;;;;;16.65;12.50;;;;;;;;;;5089984;28;20509;-84
2022/03/31 14:38:25;;;;;;;15.50;11.73;;;;;;;;;;5072875;28;20394;-85
2022/03/31 14:40:52;;;;;;;19.45;13.10;;;;;;;;;;5074656;28;20044;-85
2022/03/31 14:43:19;;;;;;;17.52;12.93;;;;;;;;;;5122851;27;20420;-86